Time;durP1;ratioP1;P1;durP2;ratioP2;P2;SDS_P1;SDS_P2;PMS_P1;PMS_P2;Temp;Humidity;BMP_temperature;BMP_pressure;BME280_temperature;BME280_humidity;BME280_pressure;Samples;Min_cycle;Max_cycle;Signal;HPM_P1;HPM_P2
2021/06/04 00:01:36;;;;;;;8.32;2.55;;;18.00;99.90;;;;;;20797604;28;20037;-50
2021/06/04 00:11:47;;;;;;;6.97;3.22;;;17.80;99.90;;;;;;20796006;28;20041;-49
2021/06/04 00:21:53;;;;;;;6.38;2.97;;;17.70;99.90;;;;;;20799000;28;20057;-49
2021/06/04 00:31:56;;;;;;;6.55;2.35;;;17.50;99.90;;;;;;20799118;28;20037;-49
2021/06/04 00:42:01;;;;;;;5.13;2.50;;;17.40;99.90;;;;;;20793868;28;20047;-49
2021/06/04 00:52:05;;;;;;;6.95;2.92;;;17.30;99.90;;;;;;20791783;28;20072;-49
2021/06/04 01:02:16;;;;;;;7.22;3.60;;;17.20;99.90;;;;;;20791686;28;20034;-49
2021/06/04 01:12:54;;;;;;;7.97;3.63;;;17.00;99.90;;;;;;20794385;28;20124;-49
2021/06/04 01:23:44;;;;;;;10.07;3.43;;;16.90;99.90;;;;;;20782061;28;20078;-49
2021/06/04 01:33:57;;;;;;;8.73;3.80;;;16.90;99.90;;;;;;20776042;28;20877;-49
2021/06/04 01:44:07;;;;;;;8.70;4.38;;;16.80;99.90;;;;;;20771904;28;20481;-49
2021/06/04 01:54:32;;;;;;;10.55;5.43;;;16.60;99.90;;;;;;20792792;28;20396;-49
2021/06/04 02:04:37;;;;;;;11.10;4.13;;;16.60;99.90;;;;;;20785226;28;20732;-49
2021/06/04 02:14:50;;;;;;;11.63;5.80;;;16.40;99.90;;;;;;20785085;28;20260;-49
2021/06/04 02:25:09;;;;;;;10.38;4.50;;;16.40;99.90;;;;;;20796424;28;20396;-49
2021/06/04 02:35:17;;;;;;;9.05;4.95;;;16.30;99.90;;;;;;20772892;28;21002;-49
2021/06/04 02:45:31;;;;;;;13.55;5.35;;;16.20;99.90;;;;;;20783520;28;20385;-49
2021/06/04 02:55:33;;;;;;;12.15;5.32;;;16.20;99.90;;;;;;20788782;28;20060;-49
2021/06/04 03:05:38;;;;;;;12.68;5.30;;;16.20;99.90;;;;;;20786642;28;20918;-49
2021/06/04 03:15:46;;;;;;;14.85;5.78;;;16.20;99.90;;;;;;20800559;28;20608;-49
2021/06/04 03:25:51;;;;;;;13.90;5.45;;;16.20;99.90;;;;;;20797672;28;20505;-49
2021/06/04 03:35:53;;;;;;;14.80;5.72;;;16.20;99.90;;;;;;20792834;28;20856;-49
2021/06/04 03:45:55;;;;;;;13.35;6.03;;;16.30;99.90;;;;;;20799396;28;20118;-49
2021/06/04 03:55:57;;;;;;;14.88;6.45;;;16.20;99.90;;;;;;20781730;28;20037;-49
2021/06/04 04:05:58;;;;;;;10.68;5.30;;;16.20;99.90;;;;;;20788610;28;20051;-49
2021/06/04 04:16:00;;;;;;;14.52;6.13;;;16.30;99.90;;;;;;20751754;28;20029;-49
2021/06/04 04:26:01;;;;;;;11.82;4.90;;;16.30;99.90;;;;;;20794065;28;20049;-49
2021/06/04 04:36:06;;;;;;;12.13;5.53;;;16.20;99.90;;;;;;20800294;28;20039;-49
2021/06/04 04:46:09;;;;;;;14.70;6.55;;;16.30;99.90;;;;;;20794601;28;20118;-49
2021/06/04 04:56:11;;;;;;;18.17;6.55;;;16.40;99.90;;;;;;20790845;28;20044;-49
2021/06/04 05:06:12;;;;;;;16.45;6.93;;;16.80;99.90;;;;;;20726316;28;20054;-49
2021/06/04 05:16:14;;;;;;;20.10;6.22;;;17.00;99.90;;;;;;20713209;28;20045;-49
2021/06/04 05:26:16;;;;;;;12.48;6.00;;;17.40;99.90;;;;;;20713014;28;20147;-49
2021/06/04 05:36:22;;;;;;;16.85;6.03;;;17.50;99.90;;;;;;20727190;28;20041;-48
2021/06/04 05:46:24;;;;;;;15.13;6.13;;;17.80;99.90;;;;;;20716188;28;20048;-49
2021/06/04 05:56:27;;;;;;;8.57;3.20;;;18.10;99.90;;;;;;20722316;28;20037;-49
2021/06/04 06:06:28;;;;;;;6.78;3.15;;;18.50;99.90;;;;;;20716281;28;20041;-48
2021/06/04 06:16:31;;;;;;;9.63;4.38;;;18.60;99.90;;;;;;20722777;28;20044;-49
2021/06/04 06:26:32;;;;;;;6.95;3.35;;;18.70;99.90;;;;;;20727105;28;20108;-49
2021/06/04 06:36:37;;;;;;;11.07;4.18;;;18.90;99.90;;;;;;20725928;28;20109;-49
2021/06/04 06:46:41;;;;;;;8.37;3.67;;;19.20;99.90;;;;;;20729628;28;20212;-49
2021/06/04 06:56:45;;;;;;;11.55;5.25;;;19.40;99.90;;;;;;20738595;28;20589;-49
2021/06/04 07:06:47;;;;;;;14.45;5.15;;;19.60;99.90;;;;;;20771031;28;20120;-49
2021/06/04 07:16:48;;;;;;;10.40;4.78;;;19.70;99.90;;;;;;20816161;28;20052;-49
2021/06/04 07:26:55;;;;;;;11.40;5.07;;;19.90;99.90;;;;;;20820500;28;20066;-49
2021/06/04 07:37:00;;;;;;;11.60;4.38;;;19.70;99.90;;;;;;20823037;28;20041;-49
2021/06/04 07:47:02;;;;;;;7.55;3.97;;;19.90;99.90;;;;;;20802939;28;20408;-49
2021/06/04 07:57:04;;;;;;;11.15;3.70;;;20.00;99.90;;;;;;20817254;28;20046;-49
2021/06/04 08:07:05;;;;;;;13.98;4.40;;;20.10;99.90;;;;;;20821284;28;20131;-49
2021/06/04 08:17:07;;;;;;;6.50;3.47;;;20.70;99.90;;;;;;20816695;28;20164;-49
2021/06/04 08:27:09;;;;;;;6.72;2.83;;;20.90;99.90;;;;;;20818223;28;20059;-49
2021/06/04 08:37:10;;;;;;;6.93;3.20;;;21.20;99.90;;;;;;20820854;28;20084;-49
2021/06/04 08:47:19;;;;;;;5.72;2.78;;;21.40;99.90;;;;;;20809678;28;20056;-49
2021/06/04 08:57:36;;;;;;;7.32;3.58;;;21.50;99.90;;;;;;20810434;28;20041;-50
2021/06/04 09:07:43;;;;;;;7.22;3.10;;;22.10;99.90;;;;;;20818381;28;20038;-50
2021/06/04 09:17:47;;;;;;;5.33;3.00;;;22.20;99.90;;;;;;20809926;28;20045;-50
2021/06/04 09:28:09;;;;;;;5.38;2.63;;;22.60;99.90;;;;;;20808949;28;20136;-50
2021/06/04 09:38:19;;;;;;;5.25;2.80;;;22.90;99.90;;;;;;20824162;28;20046;-50
2021/06/04 09:48:54;;;;;;;11.70;3.60;;;22.90;99.90;;;;;;20806679;28;20547;-50
2021/06/04 09:59:05;;;;;;;8.50;3.35;;;23.00;99.90;;;;;;20804672;28;20044;-50
2021/06/04 10:09:25;;;;;;;6.10;2.88;;;23.00;99.90;;;;;;20808226;28;20041;-50
2021/06/04 10:19:39;;;;;;;6.30;3.30;;;23.00;99.90;;;;;;20809794;28;20048;-50
2021/06/04 10:29:41;;;;;;;5.22;2.72;;;23.30;99.90;;;;;;20811043;28;20061;-50
2021/06/04 10:39:49;;;;;;;5.60;2.58;;;23.60;99.90;;;;;;20801223;28;20044;-50
2021/06/04 10:50:12;;;;;;;3.72;1.83;;;24.00;99.90;;;;;;20813853;28;20048;-50
2021/06/04 11:00:20;;;;;;;5.65;2.53;;;24.30;99.90;;;;;;20809667;28;20103;-50
2021/06/04 11:10:44;;;;;;;5.32;2.90;;;25.00;99.90;;;;;;20808024;28;20502;-50
2021/06/04 11:20:53;;;;;;;7.72;3.03;;;24.80;99.90;;;;;;20805057;28;20067;-50
2021/06/04 11:30:58;;;;;;;9.05;2.80;;;24.70;99.90;;;;;;20805162;28;20056;-50
2021/06/04 11:41:10;;;;;;;4.50;2.42;;;24.80;99.90;;;;;;20820487;28;20033;-50
2021/06/04 11:51:17;;;;;;;3.53;1.88;;;25.70;99.90;;;;;;20816298;28;20111;-50
2021/06/04 12:01:21;;;;;;;;;;;25.70;99.90;;;;;;20821087;28;20045;-50
2021/06/04 12:11:22;;;;;;;5.78;2.50;;;25.50;99.90;;;;;;20822684;28;20023;-50
2021/06/04 12:21:39;;;;;;;4.75;2.40;;;25.30;99.90;;;;;;20814100;28;20045;-50
2021/06/04 12:31:52;;;;;;;4.03;1.80;;;25.40;99.90;;;;;;20809329;28;20046;-50
2021/06/04 12:42:09;;;;;;;4.15;2.05;;;26.00;99.90;;;;;;20807625;28;20041;-50
2021/06/04 12:52:15;;;;;;;13.57;1.92;;;26.10;99.90;;;;;;20810238;28;20049;-50
2021/06/04 13:02:22;;;;;;;3.90;1.80;;;25.70;99.90;;;;;;20805400;28;20484;-50
2021/06/04 13:12:28;;;;;;;4.40;2.00;;;26.20;99.90;;;;;;20805340;28;21019;-50
2021/06/04 13:22:30;;;;;;;2.65;1.27;;;26.30;99.90;;;;;;20810090;28;20393;-50
2021/06/04 13:32:58;;;;;;;3.33;1.60;;;26.20;99.90;;;;;;20808053;28;20116;-50
2021/06/04 13:43:04;;;;;;;4.30;2.00;;;26.60;99.90;;;;;;20803802;28;20651;-50
2021/06/04 13:53:09;;;;;;;3.70;1.98;;;26.10;99.90;;;;;;20806400;28;20057;-50
2021/06/04 14:03:16;;;;;;;5.35;2.65;;;26.00;99.90;;;;;;20806499;28;20057;-50
2021/06/04 14:13:27;;;;;;;3.50;1.83;;;25.50;99.90;;;;;;20783967;28;20037;-50
2021/06/04 14:23:32;;;;;;;5.32;2.55;;;26.00;99.90;;;;;;20771130;28;20077;-50
2021/06/04 14:33:41;;;;;;;5.47;2.58;;;25.70;99.90;;;;;;20797030;28;20065;-50
2021/06/04 14:43:48;;;;;;;6.38;2.85;;;25.40;99.90;;;;;;20790466;28;20060;-50
2021/06/04 14:53:50;;;;;;;4.50;2.23;;;25.30;99.90;;;;;;20798270;28;20059;-50
2021/06/04 15:03:57;;;;;;;4.00;2.17;;;24.90;99.90;;;;;;20794260;28;20085;-50
2021/06/04 15:13:58;;;;;;;3.30;1.52;;;24.70;99.90;;;;;;20813077;28;20148;-50
2021/06/04 15:23:59;;;;;;;2.40;1.60;;;24.60;99.90;;;;;;20811051;28;20064;-50
2021/06/04 15:34:02;;;;;;;5.75;2.22;;;24.30;99.90;;;;;;20780382;28;20114;-50
2021/06/04 15:44:04;;;;;;;4.03;1.42;;;24.10;99.90;;;;;;20786040;28;20036;-49
2021/06/04 15:54:07;;;;;;;5.38;1.98;;;23.90;99.90;;;;;;20804916;28;20947;-50
2021/06/04 16:04:11;;;;;;;4.00;1.90;;;23.70;99.90;;;;;;20803750;28;20512;-50
2021/06/04 16:14:13;;;;;;;4.78;2.20;;;23.50;99.90;;;;;;20811288;28;20674;-49
2021/06/04 16:24:14;;;;;;;5.10;2.30;;;23.40;99.90;;;;;;20817506;28;20519;-50
2021/06/04 16:34:15;;;;;;;5.20;1.70;;;23.10;99.90;;;;;;20800940;28;20818;-50
2021/06/04 16:44:17;;;;;;;3.38;1.95;;;22.80;99.90;;;;;;20800211;28;20038;-49
2021/06/04 16:54:19;;;;;;;3.13;1.85;;;22.70;99.90;;;;;;20754356;28;21136;-50
2021/06/04 17:04:21;;;;;;;3.58;1.70;;;22.60;99.90;;;;;;20801276;28;20046;-49
2021/06/04 17:14:22;;;;;;;3.85;2.13;;;22.60;99.90;;;;;;20809101;28;20037;-49
2021/06/04 17:24:23;;;;;;;2.28;1.17;;;22.30;99.90;;;;;;20806734;28;20627;-49
2021/06/04 17:34:25;;;;;;;2.42;1.23;;;22.10;99.90;;;;;;20800637;28;20029;-49
2021/06/04 17:44:27;;;;;;;2.90;1.52;;;22.20;99.90;;;;;;20807237;28;21014;-50
2021/06/04 17:54:28;;;;;;;3.83;1.83;;;22.00;99.90;;;;;;20807251;28;20128;-50
2021/06/04 18:04:29;;;;;;;4.78;1.80;;;21.80;99.90;;;;;;20816775;28;20156;-50
2021/06/04 18:14:30;;;;;;;3.05;1.60;;;21.60;99.90;;;;;;20802296;28;21001;-50
2021/06/04 18:24:33;;;;;;;1.90;1.25;;;21.40;99.90;;;;;;20794799;28;20052;-50
2021/06/04 18:34:34;;;;;;;3.28;1.30;;;21.40;99.90;;;;;;20796909;28;20037;-50
2021/06/04 18:44:36;;;;;;;2.25;1.33;;;21.40;99.90;;;;;;20771957;28;20673;-50
2021/06/04 18:54:37;;;;;;;3.13;1.50;;;21.20;99.90;;;;;;20817104;28;20046;-50
2021/06/04 19:04:39;;;;;;;5.05;2.13;;;21.10;99.90;;;;;;20804675;28;20037;-50
2021/06/04 19:14:40;;;;;;;3.65;1.70;;;21.00;99.90;;;;;;20796745;28;22038;-50
2021/06/04 19:24:42;;;;;;;3.70;2.40;;;20.80;99.90;;;;;;20790410;28;20053;-49
2021/06/04 19:34:44;;;;;;;5.57;2.47;;;20.70;99.90;;;;;;20790490;28;20048;-50
2021/06/04 19:44:45;;;;;;;7.65;3.10;;;20.20;99.90;;;;;;20801287;28;20420;-50
2021/06/04 19:54:47;;;;;;;5.63;2.83;;;20.10;99.90;;;;;;20806333;28;20045;-50
2021/06/04 20:04:48;;;;;;;4.80;2.72;;;20.00;99.90;;;;;;20757031;28;20080;-50
2021/06/04 20:14:50;;;;;;;3.67;2.55;;;20.00;99.90;;;;;;20786603;28;21898;-50
2021/06/04 20:24:51;;;;;;;6.63;3.38;;;19.90;99.90;;;;;;20796363;28;20056;-50
2021/06/04 20:34:55;;;;;;;7.57;3.15;;;19.80;99.90;;;;;;20802693;28;20038;-50
2021/06/04 20:44:56;;;;;;;9.13;4.20;;;20.00;99.90;;;;;;20792831;28;20057;-50
2021/06/04 20:54:57;;;;;;;7.13;3.33;;;20.10;99.90;;;;;;20797646;28;20120;-50
2021/06/04 21:05:02;;;;;;;8.75;4.72;;;20.10;99.90;;;;;;20794299;28;20056;-50
2021/06/04 21:15:05;;;;;;;8.32;4.03;;;20.00;99.90;;;;;;20791754;28;20033;-50
2021/06/04 21:25:07;;;;;;;6.72;3.33;;;19.90;99.90;;;;;;20795181;28;20429;-50
2021/06/04 21:35:12;;;;;;;8.32;4.43;;;19.70;99.90;;;;;;20792009;28;20076;-50
2021/06/04 21:45:14;;;;;;;8.13;4.43;;;19.60;99.90;;;;;;20793167;28;20128;-50
2021/06/04 21:55:16;;;;;;;9.82;4.75;;;19.50;99.90;;;;;;20792117;28;20038;-49
2021/06/04 22:05:18;;;;;;;10.15;5.35;;;19.50;99.90;;;;;;20797022;28;20044;-50
2021/06/04 22:15:20;;;;;;;12.73;4.40;;;19.50;99.90;;;;;;20795371;28;20041;-50
2021/06/04 22:25:29;;;;;;;12.05;5.85;;;19.50;99.90;;;;;;20792155;28;20052;-49
2021/06/04 22:35:30;;;;;;;11.20;6.38;;;19.40;99.90;;;;;;20793618;28;20064;-49
2021/06/04 22:45:34;;;;;;;12.98;6.80;;;19.10;99.90;;;;;;20796644;28;20036;-50
2021/06/04 22:55:40;;;;;;;17.17;8.15;;;18.90;99.90;;;;;;20792484;28;20095;-50
2021/06/04 23:05:43;;;;;;;18.25;9.00;;;18.60;99.90;;;;;;20797088;28;20042;-50
2021/06/04 23:15:44;;;;;;;15.38;8.63;;;18.40;99.90;;;;;;20792757;28;20333;-50
2021/06/04 23:25:46;;;;;;;20.35;8.70;;;18.30;99.90;;;;;;20795835;28;20041;-50
2021/06/04 23:35:47;;;;;;;19.20;9.10;;;18.30;99.90;;;;;;20808787;28;20040;-50
2021/06/04 23:45:48;;;;;;;25.67;9.85;;;18.00;99.90;;;;;;20809397;28;20041;-49
2021/06/04 23:55:50;;;;;;;19.17;10.05;;;18.00;99.90;;;;;;20805554;28;20046;-50
